Time;durP1;ratioP1;P1;durP2;ratioP2;P2;SDS_P1;SDS_P2;PMS_P1;PMS_P2;Temp;Humidity;BMP_temperature;BMP_pressure;BME280_temperature;BME280_humidity;BME280_pressure;Samples;Min_cycle;Max_cycle;Signal;HPM_P1;HPM_P2
2021/06/05 00:00:49;;;;;;;9.18;7.97;;;20.30;99.90;;;;;;5015112;28;20057;-76
2021/06/05 00:03:16;;;;;;;17.88;7.97;;;20.30;99.90;;;;;;5014924;28;20475;-76
2021/06/05 00:05:49;;;;;;;12.20;7.88;;;20.20;99.90;;;;;;5015223;28;20037;-74
2021/06/05 00:08:17;;;;;;;9.05;7.50;;;20.20;99.90;;;;;;5012907;28;20018;-75
2021/06/05 00:10:47;;;;;;;18.67;8.35;;;20.10;99.90;;;;;;5014353;28;20026;-76
2021/06/05 00:13:17;;;;;;;9.93;7.15;;;20.10;99.90;;;;;;5010558;28;20042;-76
2021/06/05 00:15:45;;;;;;;12.80;8.63;;;20.00;99.90;;;;;;5007707;28;20367;-76
2021/06/05 00:18:11;;;;;;;11.55;8.40;;;20.00;99.90;;;;;;5014682;28;20157;-76
2021/06/05 00:20:37;;;;;;;15.02;8.70;;;20.00;99.90;;;;;;5014645;28;20054;-76
2021/06/05 00:23:06;;;;;;;15.40;8.70;;;19.90;99.90;;;;;;5014694;28;20508;-76
2021/06/05 00:25:33;;;;;;;13.98;8.73;;;19.90;99.90;;;;;;5014762;28;20022;-75
2021/06/05 00:27:59;;;;;;;14.13;7.97;;;19.90;99.90;;;;;;5014373;28;20029;-75
2021/06/05 00:30:26;;;;;;;15.10;8.32;;;19.90;99.90;;;;;;5013853;28;20036;-75
2021/06/05 00:32:51;;;;;;;15.40;8.40;;;20.00;99.90;;;;;;5014798;28;20057;-76
2021/06/05 00:35:17;;;;;;;10.70;7.55;;;19.90;99.90;;;;;;5014269;28;20073;-76
2021/06/05 00:37:43;;;;;;;9.80;7.72;;;19.90;99.90;;;;;;5014701;28;20022;-76
2021/06/05 00:40:10;;;;;;;14.40;8.60;;;19.90;99.90;;;;;;5013844;28;20026;-76
2021/06/05 00:42:36;;;;;;;13.45;8.85;;;19.80;99.90;;;;;;5014285;28;20028;-75
2021/06/05 00:45:08;;;;;;;14.48;9.13;;;19.80;99.90;;;;;;5014167;28;20017;-76
2021/06/05 00:47:34;;;;;;;12.70;9.35;;;19.80;99.90;;;;;;5013451;28;20022;-75
2021/06/05 00:50:01;;;;;;;14.00;9.30;;;19.70;99.90;;;;;;5013435;28;20120;-76
2021/06/05 00:52:29;;;;;;;15.55;9.07;;;19.60;99.90;;;;;;5013814;28;20545;-75
2021/06/05 00:54:55;;;;;;;16.98;9.10;;;19.60;99.90;;;;;;5013956;28;20025;-75
2021/06/05 00:57:21;;;;;;;13.05;8.57;;;19.60;99.90;;;;;;5014129;28;20045;-76
2021/06/05 00:59:47;;;;;;;11.57;9.05;;;19.70;99.90;;;;;;5013958;28;20379;-75
2021/06/05 01:02:12;;;;;;;13.25;9.05;;;19.70;99.90;;;;;;5012928;28;20022;-76
2021/06/05 01:04:39;;;;;;;12.27;9.05;;;19.70;99.90;;;;;;5013142;28;20034;-75
2021/06/05 01:07:24;;;;;;;14.95;9.95;;;19.60;99.90;;;;;;5013597;28;20018;-76
2021/06/05 01:10:00;;;;;;;12.77;9.82;;;19.60;99.90;;;;;;5013627;28;20026;-76
2021/06/05 01:13:02;;;;;;;17.98;9.27;;;19.60;99.90;;;;;;5013975;28;20101;-76
2021/06/05 01:15:30;;;;;;;15.05;9.20;;;19.60;99.90;;;;;;5013584;28;20398;-75
2021/06/05 01:18:08;;;;;;;13.00;8.50;;;19.60;99.90;;;;;;5013889;28;20053;-76
2021/06/05 01:20:59;;;;;;;16.13;9.35;;;19.60;99.90;;;;;;4994627;28;20017;-75
2021/06/05 01:23:28;;;;;;;30.52;10.95;;;19.50;99.90;;;;;;5013215;28;20084;-76
2021/06/05 01:26:01;;;;;;;14.88;9.43;;;19.50;99.90;;;;;;5011058;28;20027;-75
2021/06/05 01:28:50;;;;;;;16.83;10.43;;;19.50;99.90;;;;;;5008772;28;20025;-75
2021/06/05 01:31:23;;;;;;;19.73;9.10;;;19.50;99.90;;;;;;4993181;28;20044;-75
2021/06/05 01:33:49;;;;;;;13.35;9.15;;;19.50;99.90;;;;;;5009152;28;20024;-75
2021/06/05 01:36:16;;;;;;;16.48;9.75;;;19.50;99.90;;;;;;5012058;28;20113;-76
2021/06/05 01:38:50;;;;;;;10.98;9.80;;;19.50;99.90;;;;;;5013020;28;20022;-74
2021/06/05 01:41:17;;;;;;;10.77;9.52;;;19.50;99.90;;;;;;5006176;28;20030;-76
2021/06/05 01:43:46;;;;;;;12.15;9.30;;;19.60;99.90;;;;;;5012447;28;20490;-76
2021/06/05 01:46:13;;;;;;;12.43;9.50;;;19.60;99.90;;;;;;5012550;28;20057;-75
2021/06/05 01:48:39;;;;;;;11.27;8.93;;;19.70;99.90;;;;;;5012333;28;20053;-76
2021/06/05 01:51:09;;;;;;;12.00;8.60;;;19.70;99.90;;;;;;5010403;28;20092;-75
2021/06/05 01:53:41;;;;;;;12.68;9.32;;;19.70;99.90;;;;;;5013110;28;20031;-75
2021/06/05 01:56:11;;;;;;;11.00;7.95;;;19.70;99.90;;;;;;5010660;28;20486;-76
2021/06/05 01:58:38;;;;;;;9.85;7.88;;;19.70;99.90;;;;;;5013291;28;20112;-75
2021/06/05 02:01:05;;;;;;;10.90;7.85;;;19.70;99.90;;;;;;4994838;28;20030;-75
2021/06/05 02:03:31;;;;;;;14.48;7.75;;;19.70;99.90;;;;;;5001827;28;20019;-76
2021/06/05 02:05:57;;;;;;;7.22;6.50;;;19.70;99.90;;;;;;5009573;28;20037;-75
2021/06/05 02:08:26;;;;;;;11.95;7.20;;;19.80;99.90;;;;;;5012724;28;20164;-75
2021/06/05 02:11:02;;;;;;;10.65;7.10;;;19.80;99.90;;;;;;5013012;28;20029;-75
2021/06/05 02:13:45;;;;;;;11.50;7.40;;;19.90;99.90;;;;;;5005525;28;20156;-75
2021/06/05 02:16:21;;;;;;;10.98;7.15;;;19.90;99.90;;;;;;5012143;28;20117;-75
2021/06/05 02:18:54;;;;;;;15.02;7.30;;;19.80;99.90;;;;;;5012101;28;20050;-74
2021/06/05 02:21:22;;;;;;;8.90;6.90;;;19.90;99.90;;;;;;4996915;28;20506;-76
2021/06/05 02:24:20;;;;;;;12.38;7.20;;;19.90;99.90;;;;;;5005585;28;20034;-75
2021/06/05 02:26:46;;;;;;;11.48;7.32;;;19.80;99.90;;;;;;4984216;28;20033;-75
2021/06/05 02:29:15;;;;;;;17.70;7.65;;;19.90;99.90;;;;;;5006342;28;20102;-75
2021/06/05 02:31:41;;;;;;;15.25;7.13;;;19.90;99.90;;;;;;5012059;28;20022;-76
2021/06/05 02:34:12;;;;;;;18.77;6.72;;;19.90;99.90;;;;;;5004812;28;20049;-76
2021/06/05 02:36:44;;;;;;;11.38;5.78;;;19.90;99.90;;;;;;5011741;28;20112;-76
2021/06/05 02:39:13;;;;;;;11.68;7.43;;;19.90;99.90;;;;;;5011352;28;20053;-76
2021/06/05 02:41:42;;;;;;;10.55;6.50;;;19.90;99.90;;;;;;5011914;28;20382;-75
2021/06/05 02:44:10;;;;;;;8.68;6.07;;;20.00;99.90;;;;;;5005335;28;20402;-76
2021/06/05 02:46:38;;;;;;;10.30;6.60;;;20.00;99.90;;;;;;5012167;28;20109;-75
2021/06/05 02:49:19;;;;;;;11.00;6.22;;;20.10;99.90;;;;;;5007633;28;20050;-75
2021/06/05 02:51:49;;;;;;;16.40;6.65;;;20.10;99.90;;;;;;5012190;28;20022;-76
2021/06/05 02:54:15;;;;;;;12.18;7.10;;;20.10;99.90;;;;;;5006080;28;20065;-75
2021/06/05 02:56:41;;;;;;;8.85;7.10;;;20.20;99.90;;;;;;5010085;28;20026;-75
2021/06/05 02:59:06;;;;;;;14.77;7.95;;;20.20;99.90;;;;;;5009726;28;20029;-75
2021/06/05 03:01:33;;;;;;;10.15;6.93;;;20.20;99.90;;;;;;4998065;28;20479;-74
2021/06/05 03:04:00;;;;;;;12.50;7.63;;;20.20;99.90;;;;;;5004454;28;20026;-76
2021/06/05 03:06:27;;;;;;;18.60;7.63;;;20.20;99.90;;;;;;5004371;28;20422;-75
2021/06/05 03:08:53;;;;;;;9.82;7.65;;;20.20;99.90;;;;;;5007136;28;20034;-75
2021/06/05 03:11:21;;;;;;;15.00;7.88;;;20.20;99.90;;;;;;5006548;28;20026;-73
2021/06/05 03:13:47;;;;;;;9.82;7.80;;;20.20;99.90;;;;;;5006570;28;20031;-75
2021/06/05 03:16:14;;;;;;;17.05;8.30;;;20.20;99.90;;;;;;4992801;28;20034;-75
2021/06/05 03:18:40;;;;;;;14.40;7.80;;;20.20;99.90;;;;;;5011339;28;20014;-75
2021/06/05 03:21:08;;;;;;;9.68;7.80;;;20.10;99.90;;;;;;5011465;28;20084;-76
2021/06/05 03:23:34;;;;;;;14.70;7.68;;;20.20;99.90;;;;;;4988523;28;20018;-75
2021/06/05 03:26:01;;;;;;;19.98;7.82;;;20.20;99.90;;;;;;4996021;28;20447;-74
2021/06/05 03:28:31;;;;;;;10.82;7.55;;;20.20;99.90;;;;;;5015350;28;20018;-75
2021/06/05 03:30:57;;;;;;;10.98;7.00;;;20.30;99.90;;;;;;5015561;28;20101;-76
2021/06/05 03:33:24;;;;;;;13.40;8.20;;;20.30;99.90;;;;;;5015419;28;21091;-76
2021/06/05 03:35:51;;;;;;;11.80;7.13;;;20.30;99.90;;;;;;5015541;28;20059;-75
2021/06/05 03:38:19;;;;;;;8.90;7.32;;;20.30;99.90;;;;;;5015804;28;20033;-75
2021/06/05 03:40:45;;;;;;;17.88;7.35;;;20.30;99.90;;;;;;5015495;28;20021;-75
2021/06/05 03:43:11;;;;;;;12.32;7.63;;;20.40;99.90;;;;;;5015339;28;20025;-76
2021/06/05 03:45:38;;;;;;;15.38;7.80;;;20.40;99.90;;;;;;5015425;28;20017;-75
2021/06/05 03:48:05;;;;;;;8.85;6.78;;;20.40;99.90;;;;;;5015249;28;20041;-75
2021/06/05 03:50:34;;;;;;;14.00;7.47;;;20.50;99.90;;;;;;5015207;28;20394;-76
2021/06/05 03:53:01;;;;;;;11.02;7.10;;;20.50;99.90;;;;;;5015018;28;20041;-77
2021/06/05 03:55:27;;;;;;;13.32;7.38;;;20.50;99.90;;;;;;5014580;28;20449;-76
2021/06/05 03:57:58;;;;;;;13.32;7.15;;;20.60;99.90;;;;;;5014686;28;20029;-75
2021/06/05 04:00:28;;;;;;;8.45;6.80;;;20.60;99.90;;;;;;5014575;28;20084;-76
2021/06/05 04:02:53;;;;;;;12.35;7.25;;;20.60;99.90;;;;;;5014939;28;20053;-75
2021/06/05 04:05:19;;;;;;;8.30;7.40;;;20.70;99.90;;;;;;5014809;28;20104;-75
2021/06/05 04:07:45;;;;;;;10.05;6.53;;;20.80;99.90;;;;;;5014616;28;20029;-77
2021/06/05 04:10:13;;;;;;;15.07;7.25;;;20.90;99.90;;;;;;5014703;28;20030;-76
2021/06/05 04:12:39;;;;;;;12.00;7.63;;;21.00;99.90;;;;;;5014281;28;20033;-76
2021/06/05 04:15:08;;;;;;;14.45;7.20;;;21.10;99.90;;;;;;5014307;28;20034;-74
2021/06/05 04:17:34;;;;;;;24.77;7.30;;;21.20;99.90;;;;;;4996823;28;20025;-77
2021/06/05 04:20:00;;;;;;;13.02;7.57;;;21.20;99.90;;;;;;5014596;28;20018;-76
2021/06/05 04:22:26;;;;;;;11.15;7.80;;;21.30;99.90;;;;;;5014820;28;20104;-75
2021/06/05 04:24:52;;;;;;;17.67;6.72;;;21.30;99.90;;;;;;5014447;28;20467;-76
2021/06/05 04:27:18;;;;;;;10.82;7.10;;;21.30;99.90;;;;;;5015265;28;20450;-76
2021/06/05 04:29:44;;;;;;;9.85;7.25;;;21.40;99.90;;;;;;5014258;28;20032;-77
2021/06/05 04:32:09;;;;;;;9.68;6.15;;;21.40;99.90;;;;;;5006480;28;20109;-74
2021/06/05 04:34:36;;;;;;;16.25;7.20;;;21.40;99.90;;;;;;5014260;28;20018;-76
2021/06/05 04:37:02;;;;;;;14.50;7.18;;;21.30;99.90;;;;;;5013102;28;20398;-76
2021/06/05 04:39:29;;;;;;;14.95;6.88;;;21.30;99.90;;;;;;5014079;28;20037;-77
2021/06/05 04:41:55;;;;;;;14.52;6.43;;;21.40;99.90;;;;;;5014372;28;20044;-77
2021/06/05 04:44:21;;;;;;;13.07;6.68;;;21.90;99.90;;;;;;5014171;28;20096;-76
2021/06/05 04:46:46;;;;;;;25.70;7.30;;;22.70;99.90;;;;;;4996530;28;20109;-76
2021/06/05 04:49:12;;;;;;;11.98;6.65;;;24.00;99.90;;;;;;5014023;28;20046;-76
2021/06/05 04:51:38;;;;;;;14.57;5.93;;;25.70;99.90;;;;;;5014096;28;20573;-75
2021/06/05 04:54:05;;;;;;;7.95;5.82;;;27.40;99.90;;;;;;5014209;28;20021;-77
2021/06/05 04:56:39;;;;;;;6.57;5.55;;;28.80;98.50;;;;;;5013886;28;20049;-76
2021/06/05 04:59:06;;;;;;;11.32;5.72;;;29.80;96.40;;;;;;5013718;28;20022;-76
2021/06/05 05:01:33;;;;;;;8.43;5.25;;;30.60;95.00;;;;;;5013402;28;20471;-75
2021/06/05 05:04:00;;;;;;;9.40;5.18;;;31.10;93.80;;;;;;5013927;28;20033;-75
2021/06/05 05:06:26;;;;;;;11.13;5.60;;;31.40;93.20;;;;;;5013445;28;20064;-74
2021/06/05 05:08:52;;;;;;;16.52;4.85;;;31.80;92.40;;;;;;5013770;28;20030;-75
2021/06/05 05:11:18;;;;;;;9.70;5.13;;;32.30;91.80;;;;;;5013286;28;20049;-74
2021/06/05 05:13:44;;;;;;;7.72;4.82;;;32.70;91.20;;;;;;5013265;28;20486;-75
2021/06/05 05:16:10;;;;;;;8.63;4.97;;;33.00;90.70;;;;;;5012783;28;20506;-74
2021/06/05 05:18:38;;;;;;;15.25;4.68;;;33.10;90.40;;;;;;5013450;28;20017;-74
2021/06/05 05:21:06;;;;;;;9.55;4.97;;;33.40;89.60;;;;;;5013599;28;20355;-74
2021/06/05 05:23:33;;;;;;;7.40;4.25;;;33.70;88.60;;;;;;5012763;28;20042;-75
2021/06/05 05:26:01;;;;;;;9.43;4.10;;;33.80;88.10;;;;;;5012760;28;20022;-75
2021/06/05 05:28:27;;;;;;;8.18;4.15;;;34.40;86.50;;;;;;4994217;28;20038;-75
2021/06/05 05:30:56;;;;;;;9.07;4.13;;;34.70;85.60;;;;;;5006102;28;20053;-76
2021/06/05 05:33:23;;;;;;;11.10;4.05;;;35.40;84.60;;;;;;5013237;28;20041;-75
2021/06/05 05:35:49;;;;;;;7.35;3.88;;;35.70;83.40;;;;;;5007628;28;20509;-75
2021/06/05 05:38:16;;;;;;;11.23;4.35;;;36.20;83.00;;;;;;5006017;28;20485;-75
2021/06/05 05:40:43;;;;;;;7.97;4.10;;;36.80;80.80;;;;;;5006670;28;20026;-75
2021/06/05 05:43:10;;;;;;;9.07;3.85;;;37.00;79.60;;;;;;5009464;28;20141;-74
2021/06/05 05:45:36;;;;;;;6.55;3.70;;;37.20;78.60;;;;;;5011624;28;20052;-76
2021/06/05 05:48:04;;;;;;;5.25;3.60;;;37.20;78.40;;;;;;4982238;28;20094;-75
2021/06/05 05:50:31;;;;;;;6.47;3.45;;;37.80;77.80;;;;;;5012077;28;20029;-75
2021/06/05 05:52:58;;;;;;;3.67;2.92;;;38.40;76.60;;;;;;5010724;28;20101;-75
2021/06/05 05:55:24;;;;;;;7.57;3.67;;;38.50;75.60;;;;;;5012825;28;20038;-74
2021/06/05 05:57:49;;;;;;;8.82;3.45;;;38.40;75.60;;;;;;5006952;28;20145;-75
2021/06/05 06:00:21;;;;;;;7.15;3.28;;;38.80;74.60;;;;;;5006121;28;20023;-75
2021/06/05 06:02:47;;;;;;;12.20;3.75;;;39.30;73.50;;;;;;5012200;28;20017;-75
2021/06/05 06:05:13;;;;;;;6.28;3.25;;;39.20;72.90;;;;;;5010325;28;20133;-74
2021/06/05 06:07:40;;;;;;;9.52;3.83;;;39.30;72.90;;;;;;5000363;28;20402;-74
2021/06/05 06:10:08;;;;;;;12.77;3.25;;;39.60;71.70;;;;;;5012450;28;20490;-74
2021/06/05 06:12:36;;;;;;;8.27;3.25;;;40.40;71.10;;;;;;5006232;28;20498;-75
2021/06/05 06:15:09;;;;;;;8.55;3.08;;;41.20;70.10;;;;;;5012267;28;20441;-75
2021/06/05 06:17:36;;;;;;;6.50;3.20;;;41.90;67.80;;;;;;5008581;28;20120;-74
2021/06/05 06:20:04;;;;;;;13.90;3.17;;;42.20;67.20;;;;;;5009275;28;20018;-76
2021/06/05 06:22:29;;;;;;;11.48;3.30;;;42.40;65.40;;;;;;5011698;28;20057;-76
2021/06/05 06:24:55;;;;;;;12.93;3.05;;;42.10;66.20;;;;;;5003497;28;20088;-75
2021/06/05 06:27:21;;;;;;;8.43;3.20;;;42.40;64.60;;;;;;5008852;28;20029;-75
2021/06/05 06:29:47;;;;;;;6.78;2.60;;;42.80;63.50;;;;;;5003557;28;20037;-75
2021/06/05 06:32:13;;;;;;;4.70;2.70;;;43.10;63.40;;;;;;5010394;28;20018;-74
2021/06/05 06:34:38;;;;;;;10.65;2.45;;;43.60;61.50;;;;;;5006339;28;20061;-75
2021/06/05 06:37:06;;;;;;;7.82;2.50;;;43.70;61.00;;;;;;5012159;28;20024;-76
2021/06/05 06:39:33;;;;;;;7.10;2.55;;;43.70;60.60;;;;;;5004515;28;20049;-74
2021/06/05 06:41:59;;;;;;;6.47;2.53;;;43.70;60.50;;;;;;5008227;28;20455;-75
2021/06/05 06:44:26;;;;;;;14.63;2.92;;;43.20;60.10;;;;;;5006778;28;20045;-75
2021/06/05 06:46:52;;;;;;;9.90;2.55;;;42.30;60.40;;;;;;5011751;28;20042;-73
2021/06/05 06:49:20;;;;;;;3.45;2.42;;;41.30;61.60;;;;;;5006272;28;20144;-76
2021/06/05 06:51:46;;;;;;;4.32;2.50;;;40.10;62.20;;;;;;5004000;28;20489;-75
2021/06/05 06:54:13;;;;;;;5.30;3.08;;;39.10;63.70;;;;;;5011475;28;20096;-74
2021/06/05 06:56:41;;;;;;;7.97;2.88;;;38.20;64.80;;;;;;5011811;28;20022;-75
2021/06/05 06:59:08;;;;;;;9.23;3.00;;;37.10;66.30;;;;;;5012069;28;20029;-75
2021/06/05 07:01:34;;;;;;;7.78;2.80;;;36.20;68.10;;;;;;5004046;28;20030;-75
2021/06/05 07:04:00;;;;;;;6.20;2.58;;;35.60;69.20;;;;;;5011635;28;20111;-75
2021/06/05 07:06:27;;;;;;;7.28;3.03;;;35.30;69.10;;;;;;4996090;28;20125;-76
2021/06/05 07:08:55;;;;;;;7.03;3.08;;;34.70;70.10;;;;;;4996002;28;20023;-76
2021/06/05 07:11:29;;;;;;;10.13;3.00;;;34.10;71.10;;;;;;5000518;28;20061;-76
2021/06/05 07:13:58;;;;;;;4.13;2.75;;;33.50;72.10;;;;;;5005885;28;20130;-75
2021/06/05 07:16:26;;;;;;;6.03;3.28;;;33.20;72.70;;;;;;5001269;28;20556;-75
2021/06/05 07:18:52;;;;;;;7.43;3.25;;;33.00;72.20;;;;;;5004187;28;20030;-75
2021/06/05 07:21:18;;;;;;;12.40;3.38;;;32.80;73.50;;;;;;5005240;28;20026;-74
2021/06/05 07:23:45;;;;;;;9.80;3.13;;;32.60;72.70;;;;;;5009349;28;20032;-76
2021/06/05 07:26:17;;;;;;;22.30;3.42;;;32.40;74.00;;;;;;5002897;28;20026;-76
2021/06/05 07:28:47;;;;;;;9.75;3.63;;;32.40;74.50;;;;;;5009284;28;20045;-76
2021/06/05 07:31:17;;;;;;;13.57;4.05;;;32.20;75.60;;;;;;5001689;28;20057;-74
2021/06/05 07:33:45;;;;;;;4.63;3.00;;;32.10;75.70;;;;;;5011316;28;20131;-75
2021/06/05 07:36:20;;;;;;;27.05;3.60;;;32.20;75.20;;;;;;5006824;28;20467;-74
2021/06/05 07:38:46;;;;;;;6.97;3.30;;;32.30;75.00;;;;;;5003286;28;20030;-75
2021/06/05 07:41:12;;;;;;;12.45;3.22;;;32.30;74.80;;;;;;5003357;28;20022;-75
2021/06/05 07:43:39;;;;;;;6.53;3.75;;;32.10;73.80;;;;;;5008516;28;20538;-75
2021/06/05 07:46:05;;;;;;;7.35;3.65;;;32.00;74.30;;;;;;5010126;28;20634;-76
2021/06/05 07:48:31;;;;;;;5.40;3.67;;;31.90;76.10;;;;;;4999239;28;20104;-77
2021/06/05 07:50:58;;;;;;;7.65;3.65;;;32.10;75.00;;;;;;5009840;28;20097;-77
2021/06/05 07:53:24;;;;;;;6.13;2.83;;;32.10;74.40;;;;;;4989640;28;20383;-76
2021/06/05 07:55:50;;;;;;;9.93;3.25;;;32.20;74.20;;;;;;5006925;28;20045;-75
2021/06/05 07:58:16;;;;;;;13.90;2.80;;;32.40;74.80;;;;;;5010752;28;20118;-77
2021/06/05 08:00:42;;;;;;;13.20;3.50;;;32.30;74.20;;;;;;5006227;28;20026;-75
2021/06/05 08:03:08;;;;;;;3.72;2.92;;;32.20;74.10;;;;;;5002497;28;20615;-75
2021/06/05 08:05:35;;;;;;;7.55;2.88;;;32.10;74.50;;;;;;5010393;28;20041;-77
2021/06/05 08:08:02;;;;;;;12.30;3.20;;;32.00;74.70;;;;;;4986663;28;20088;-76
2021/06/05 08:10:30;;;;;;;8.80;3.33;;;32.10;74.60;;;;;;5009898;28;20049;-75
2021/06/05 08:12:56;;;;;;;14.27;2.95;;;32.20;74.90;;;;;;4982157;28;20547;-75
2021/06/05 08:15:32;;;;;;;6.50;2.90;;;32.00;74.10;;;;;;5008797;28;20386;-74
2021/06/05 08:17:58;;;;;;;8.30;3.00;;;31.80;74.10;;;;;;4999084;28;20030;-74
2021/06/05 08:20:29;;;;;;;17.52;3.85;;;31.60;73.80;;;;;;5006077;28;20080;-76
2021/06/05 08:22:56;;;;;;;9.27;3.08;;;31.20;74.60;;;;;;5010553;28;20363;-78
2021/06/05 08:25:23;;;;;;;8.27;2.80;;;30.90;75.90;;;;;;5014035;28;20128;-75
2021/06/05 08:27:50;;;;;;;7.47;3.00;;;30.90;75.30;;;;;;4992561;28;20088;-74
2021/06/05 08:30:23;;;;;;;6.03;3.47;;;30.90;74.70;;;;;;5011583;28;20022;-76
2021/06/05 08:32:49;;;;;;;4.13;2.92;;;30.90;74.80;;;;;;5013239;28;20104;-77
2021/06/05 08:35:15;;;;;;;7.82;2.60;;;31.00;75.30;;;;;;5013629;28;20141;-75
2021/06/05 08:37:41;;;;;;;8.88;2.67;;;31.20;73.50;;;;;;5009149;28;20030;-75
2021/06/05 08:40:10;;;;;;;7.30;3.03;;;31.40;74.00;;;;;;5012382;28;20018;-75
2021/06/05 08:42:47;;;;;;;5.10;2.38;;;31.60;73.60;;;;;;4991728;28;20034;-75
2021/06/05 08:45:14;;;;;;;16.55;2.92;;;31.70;72.60;;;;;;5004012;28;20380;-75
2021/06/05 08:47:40;;;;;;;3.72;2.63;;;31.60;73.10;;;;;;5007150;28;20080;-75
2021/06/05 08:50:20;;;;;;;11.00;2.92;;;31.70;73.50;;;;;;5010581;28;20058;-74
2021/06/05 08:52:57;;;;;;;10.80;3.05;;;31.80;73.00;;;;;;5004635;28;20017;-75
2021/06/05 08:55:39;;;;;;;10.80;2.70;;;31.70;73.00;;;;;;5012922;28;20557;-74
2021/06/05 08:58:28;;;;;;;3.15;2.85;;;31.60;73.60;;;;;;5013281;28;20029;-75
2021/06/05 09:01:03;;;;;;;5.38;3.17;;;31.70;74.00;;;;;;5006007;28;20065;-74
2021/06/05 09:03:31;;;;;;;6.53;2.83;;;31.40;73.80;;;;;;5010853;28;20030;-75
2021/06/05 09:06:23;;;;;;;10.45;3.15;;;31.00;74.90;;;;;;5003005;28;20117;-75
2021/06/05 09:08:49;;;;;;;4.47;3.13;;;30.90;75.60;;;;;;4997527;28;20106;-75
2021/06/05 09:11:16;;;;;;;15.60;3.40;;;30.90;75.70;;;;;;5012827;28;20097;-76
2021/06/05 09:13:42;;;;;;;7.05;3.22;;;30.80;76.50;;;;;;5013574;28;20056;-76
2021/06/05 09:16:35;;;;;;;3.60;3.30;;;30.80;76.20;;;;;;5011762;28;20061;-75
2021/06/05 09:19:07;;;;;;;18.13;4.05;;;30.80;76.80;;;;;;5003361;28;20030;-76
2021/06/05 09:21:37;;;;;;;6.18;2.88;;;30.80;77.30;;;;;;5009558;28;20026;-76
2021/06/05 09:24:29;;;;;;;11.57;3.73;;;30.80;77.80;;;;;;5010487;28;20485;-76
2021/06/05 09:27:04;;;;;;;8.88;4.00;;;30.70;77.20;;;;;;4980775;28;20290;-75
2021/06/05 09:29:32;;;;;;;5.55;3.40;;;30.50;78.70;;;;;;5006601;28;20023;-75
2021/06/05 09:32:10;;;;;;;7.97;3.42;;;30.20;80.40;;;;;;5013469;28;20022;-76
2021/06/05 09:34:47;;;;;;;5.80;3.70;;;30.00;81.30;;;;;;5013652;28;20022;-74
2021/06/05 09:37:31;;;;;;;13.02;4.13;;;29.90;80.10;;;;;;5013594;28;20076;-76
2021/06/05 09:40:20;;;;;;;13.10;3.55;;;29.90;81.30;;;;;;4996101;28;20056;-76
2021/06/05 09:42:55;;;;;;;6.70;3.38;;;30.10;81.90;;;;;;5013458;28;20032;-76
2021/06/05 09:45:46;;;;;;;9.02;3.38;;;30.10;81.10;;;;;;4995346;28;20040;-78
2021/06/05 09:48:31;;;;;;;8.45;3.50;;;30.30;82.00;;;;;;5001478;28;20128;-78
2021/06/05 09:51:01;;;;;;;15.40;3.92;;;30.30;81.80;;;;;;5013118;28;20029;-79
2021/06/05 09:53:30;;;;;;;11.25;4.07;;;30.50;81.40;;;;;;5013064;28;20025;-74
2021/06/05 09:56:00;;;;;;;11.95;3.88;;;30.60;80.70;;;;;;5008259;28;20092;-76
2021/06/05 09:58:42;;;;;;;6.03;3.92;;;30.60;81.60;;;;;;5007160;28;20022;-74
2021/06/05 10:01:15;;;;;;;8.13;3.78;;;30.50;81.20;;;;;;5012141;28;20490;-75
2021/06/05 10:03:41;;;;;;;10.93;3.67;;;30.40;81.90;;;;;;4992615;28;20371;-75
2021/06/05 10:06:38;;;;;;;7.82;3.58;;;30.40;82.30;;;;;;5008359;28;20044;-75
2021/06/05 10:09:24;;;;;;;11.93;3.10;;;30.40;82.50;;;;;;5010244;28;20056;-75
2021/06/05 10:11:52;;;;;;;14.30;3.33;;;30.20;80.80;;;;;;4995788;28;20113;-76
2021/06/05 10:14:44;;;;;;;12.68;3.25;;;30.30;82.10;;;;;;5011354;28;20025;-76
2021/06/05 10:17:28;;;;;;;4.57;3.20;;;30.40;81.80;;;;;;5000835;28;20079;-80
2021/06/05 10:19:57;;;;;;;12.95;4.10;;;30.50;82.00;;;;;;5006519;28;20117;-78
2021/06/05 10:22:24;;;;;;;6.68;2.78;;;30.60;82.20;;;;;;4996838;28;20033;-80
2021/06/05 10:25:18;;;;;;;5.13;3.35;;;30.70;82.20;;;;;;5009645;28;20033;-77
2021/06/05 10:27:47;;;;;;;7.65;3.33;;;30.50;82.30;;;;;;4989565;28;20046;-75
2021/06/05 10:30:57;;;;;;;10.93;3.30;;;30.10;83.80;;;;;;5009662;28;20014;-75
2021/06/05 10:33:43;;;;;;;5.97;3.30;;;29.70;85.30;;;;;;5004162;28;20077;-75
2021/06/05 10:36:31;;;;;;;4.47;2.88;;;29.50;87.00;;;;;;4999915;28;20022;-76
2021/06/05 10:39:01;;;;;;;4.43;3.55;;;29.40;86.60;;;;;;5004906;28;20109;-75
2021/06/05 10:41:31;;;;;;;7.90;3.45;;;29.30;87.50;;;;;;5011898;28;20022;-77
2021/06/05 10:43:57;;;;;;;7.68;3.40;;;29.20;88.70;;;;;;5011374;28;20032;-77
2021/06/05 10:46:42;;;;;;;9.52;3.40;;;29.20;88.60;;;;;;4990471;28;20449;-77
2021/06/05 10:49:25;;;;;;;5.38;3.58;;;29.20;89.40;;;;;;5009080;28;20053;-76
2021/06/05 10:52:25;;;;;;;5.63;3.33;;;29.10;90.00;;;;;;5010780;28;20109;-76
2021/06/05 10:55:10;;;;;;;10.88;4.15;;;29.20;90.20;;;;;;4995312;28;20399;-76
2021/06/05 10:57:43;;;;;;;5.30;3.30;;;29.20;90.20;;;;;;5005019;28;20029;-76
2021/06/05 11:00:42;;;;;;;10.55;3.30;;;29.10;90.80;;;;;;5003893;28;20478;-78
2021/06/05 11:03:31;;;;;;;10.63;4.55;;;29.20;90.80;;;;;;5010790;28;20045;-77
2021/06/05 11:06:04;;;;;;;12.40;3.40;;;29.10;90.80;;;;;;4999895;28;20034;-77
2021/06/05 11:09:18;;;;;;;6.20;3.38;;;28.90;91.20;;;;;;5009980;28;20068;-76
2021/06/05 11:11:47;;;;;;;9.85;3.58;;;28.80;91.20;;;;;;4998833;28;20116;-77
2021/06/05 11:14:22;;;;;;;5.97;3.55;;;28.90;91.50;;;;;;4997854;28;20026;-76
2021/06/05 11:17:01;;;;;;;9.25;3.55;;;29.10;91.40;;;;;;5004719;28;20387;-76
2021/06/05 11:19:43;;;;;;;12.13;4.07;;;29.20;91.60;;;;;;4983342;28;20100;-76
2021/06/05 11:22:15;;;;;;;5.60;3.63;;;29.10;92.00;;;;;;4999725;28;20030;-74
2021/06/05 11:25:05;;;;;;;4.40;3.33;;;29.10;92.30;;;;;;4988542;28;20022;-76
2021/06/05 11:27:36;;;;;;;10.15;3.63;;;29.00;92.30;;;;;;4989532;28;20382;-76
2021/06/05 11:30:28;;;;;;;11.25;3.55;;;29.10;92.90;;;;;;5007148;28;20522;-75
2021/06/05 11:33:02;;;;;;;11.85;3.67;;;28.90;92.70;;;;;;5006228;28;20501;-77
2021/06/05 11:36:00;;;;;;;5.72;3.25;;;28.90;93.50;;;;;;4991765;28;20021;-77
2021/06/05 11:38:26;;;;;;;6.75;3.97;;;28.90;93.60;;;;;;5004600;28;20029;-77
2021/06/05 11:40:54;;;;;;;7.80;3.63;;;28.80;93.90;;;;;;5004835;28;20509;-76
2021/06/05 11:43:28;;;;;;;7.50;3.72;;;28.90;93.50;;;;;;5003553;28;20100;-76
2021/06/05 11:46:32;;;;;;;6.22;3.13;;;29.00;93.80;;;;;;5002560;28;20042;-77
2021/06/05 11:49:02;;;;;;;8.45;3.85;;;29.00;93.60;;;;;;5029157;23;20069;-73
2021/06/05 11:51:37;;;;;;;8.85;3.88;;;29.10;93.20;;;;;;4992599;28;20471;-74
2021/06/05 11:54:15;;;;;;;13.05;3.72;;;29.10;93.90;;;;;;4986436;28;20033;-73
2021/06/05 11:56:49;;;;;;;7.80;3.50;;;29.00;93.50;;;;;;4993298;28;20027;-74
2021/06/05 11:59:27;;;;;;;7.22;3.28;;;28.90;93.50;;;;;;4994513;28;20022;-76
2021/06/05 12:02:03;;;;;;;12.25;3.38;;;28.90;93.40;;;;;;4993194;28;20022;-74
2021/06/05 12:04:29;;;;;;;30.15;4.72;;;28.90;93.60;;;;;;4991755;28;20033;-77
2021/06/05 12:06:55;;;;;;;12.60;3.55;;;28.90;93.60;;;;;;4993510;28;20041;-75
2021/06/05 12:09:24;;;;;;;9.52;4.30;;;28.90;93.70;;;;;;4993845;28;20030;-75
2021/06/05 12:12:01;;;;;;;12.77;3.80;;;28.90;93.50;;;;;;4993023;28;20534;-75
2021/06/05 12:17:40;;;;;;;8.88;3.53;;;28.90;93.70;;;;;;4988248;28;20044;-74
2021/06/05 12:20:30;;;;;;;5.85;3.25;;;28.60;94.20;;;;;;4991919;28;20031;-74
2021/06/05 12:23:12;;;;;;;8.43;3.75;;;28.60;94.50;;;;;;4986648;28;20033;-77
2021/06/05 12:25:44;;;;;;;8.75;3.38;;;28.50;94.70;;;;;;4985309;28;20038;-74
2021/06/05 12:28:23;;;;;;;15.43;3.50;;;28.50;94.50;;;;;;4986171;28;20023;-74
2021/06/05 12:30:51;;;;;;;5.88;3.50;;;28.50;94.40;;;;;;4994655;28;20118;-74
2021/06/05 12:33:30;;;;;;;11.05;3.95;;;28.60;94.00;;;;;;4993669;28;20062;-74
2021/06/05 12:35:56;;;;;;;6.85;4.00;;;28.70;94.00;;;;;;4986177;28;20062;-78
2021/06/05 12:38:39;;;;;;;9.55;3.25;;;28.50;94.10;;;;;;4993991;28;20026;-73
2021/06/05 12:41:11;;;;;;;13.48;3.90;;;28.50;94.20;;;;;;4992446;28;20097;-74
2021/06/05 12:43:45;;;;;;;7.90;3.72;;;28.50;94.00;;;;;;4994262;28;20022;-73
2021/06/05 12:46:25;;;;;;;6.07;2.92;;;28.40;93.70;;;;;;4987105;28;20074;-73
2021/06/05 12:48:53;;;;;;;7.28;3.53;;;28.40;94.00;;;;;;4989619;28;21788;-73
2021/06/05 12:51:26;;;;;;;10.02;3.88;;;28.40;94.00;;;;;;4985257;28;20026;-74
2021/06/05 12:54:04;;;;;;;7.38;3.03;;;28.30;93.30;;;;;;4972526;28;20026;-75
2021/06/05 12:56:37;;;;;;;10.52;3.55;;;28.30;93.80;;;;;;4983248;28;20034;-75
2021/06/05 12:59:07;;;;;;;8.57;3.17;;;28.30;93.90;;;;;;4977259;28;20114;-77
2021/06/05 13:01:43;;;;;;;5.82;2.83;;;28.40;93.40;;;;;;4984600;28;20022;-78
2021/06/05 13:04:34;;;;;;;11.57;3.50;;;28.30;92.80;;;;;;4990110;28;20023;-76